sensor_id;sensor_type;location;lat;lon;timestamp;pressure;altitude;pressure_sealevel;temperature;humidity
27202;BME280;14717;46.924;15.474;2022-09-01T00:01:52;97987.94;;;17.72;100.00
27202;BME280;14717;46.924;15.474;2022-09-01T00:04:20;97988.91;;;17.76;100.00
27202;BME280;14717;46.924;15.474;2022-09-01T00:06:47;97977.78;;;17.59;100.00
27202;BME280;14717;46.924;15.474;2022-09-01T00:09:16;97980.94;;;17.49;100.00
27202;BME280;14717;46.924;15.474;2022-09-01T00:11:46;97979.47;;;17.52;100.00
27202;BME280;14717;46.924;15.474;2022-09-01T00:14:12;97982.44;;;17.47;100.00
27202;BME280;14717;46.924;15.474;2022-09-01T00:16:38;97980.94;;;17.49;100.00
27202;BME280;14717;46.924;15.474;2022-09-01T00:19:04;97982.59;;;17.50;100.00
27202;BME280;14717;46.924;15.474;2022-09-01T00:21:33;97985.56;;;17.46;100.00
27202;BME280;14717;46.924;15.474;2022-09-01T00:24:00;97980.94;;;17.49;100.00
27202;BME280;14717;46.924;15.474;2022-09-01T00:26:29;97968.44;;;17.55;100.00
27202;BME280;14717;46.924;15.474;2022-09-01T00:28:54;97976.34;;;17.53;100.00
27202;BME280;14717;46.924;15.474;2022-09-01T00:31:21;97968.44;;;17.55;100.00
27202;BME280;14717;46.924;15.474;2022-09-01T00:33:47;97978.25;;;17.24;100.00
27202;BME280;14717;46.924;15.474;2022-09-01T00:36:14;97974.97;;;17.14;100.00
27202;BME280;14717;46.924;15.474;2022-09-01T00:38:40;97977.91;;;17.17;100.00
27202;BME280;14717;46.924;15.474;2022-09-01T00:41:06;97965.75;;;17.30;100.00
27202;BME280;14717;46.924;15.474;2022-09-01T00:43:39;97977.75;;;17.22;100.00
27202;BME280;14717;46.924;15.474;2022-09-01T00:46:07;97984.28;;;17.35;100.00
27202;BME280;14717;46.924;15.474;2022-09-01T00:48:33;97982.81;;;17.37;100.00
27202;BME280;14717;46.924;15.474;2022-09-01T00:50:59;97976.22;;;17.42;100.00
27202;BME280;14717;46.924;15.474;2022-09-01T00:53:26;97981.31;;;17.40;99.47
27202;BME280;14717;46.924;15.474;2022-09-01T00:55:51;97977.75;;;17.22;99.17
27202;BME280;14717;46.924;15.474;2022-09-01T00:58:17;97983.69;;;17.21;100.00
27202;BME280;14717;46.924;15.474;2022-09-01T01:00:44;97975.28;;;17.29;100.00
27202;BME280;14717;46.924;15.474;2022-09-01T01:03:12;97982.69;;;17.25;100.00
27202;BME280;14717;46.924;15.474;2022-09-01T01:05:41;97981.22;;;17.19;100.00
27202;BME280;14717;46.924;15.474;2022-09-01T01:08:11;97969.38;;;17.14;100.00
27202;BME280;14717;46.924;15.474;2022-09-01T01:10:39;97975.47;;;17.07;100.00
27202;BME280;14717;46.924;15.474;2022-09-01T01:13:08;97969.56;;;17.09;100.00
27202;BME280;14717;46.924;15.474;2022-09-01T01:15:34;97972.31;;;17.17;100.00
27202;BME280;14717;46.924;15.474;2022-09-01T01:18:00;97974.31;;;17.25;100.00
27202;BME280;14717;46.924;15.474;2022-09-01T01:20:27;97974.47;;;17.29;100.00
27202;BME280;14717;46.924;15.474;2022-09-01T01:23:35;97970.84;;;17.20;100.00
27202;BME280;14717;46.924;15.474;2022-09-01T01:26:05;97971.47;;;17.17;100.00
27202;BME280;14717;46.924;15.474;2022-09-01T01:28:37;97978.56;;;17.23;100.00
27202;BME280;14717;46.924;15.474;2022-09-01T01:31:15;97975.31;;;17.21;100.00
27202;BME280;14717;46.924;15.474;2022-09-01T01:33:45;97976.44;;;17.20;100.00
27202;BME280;14717;46.924;15.474;2022-09-01T01:36:16;97982.03;;;17.20;100.00
27202;BME280;14717;46.924;15.474;2022-09-01T01:38:44;97968.22;;;17.15;100.00
27202;BME280;14717;46.924;15.474;2022-09-01T01:41:12;97966.06;;;17.12;100.00
27202;BME280;14717;46.924;15.474;2022-09-01T01:43:39;97965.59;;;17.10;100.00
27202;BME280;14717;46.924;15.474;2022-09-01T01:46:10;97970.69;;;17.08;100.00
27202;BME280;14717;46.924;15.474;2022-09-01T01:48:38;97974.16;;;17.05;100.00
27202;BME280;14717;46.924;15.474;2022-09-01T01:51:05;97969.91;;;16.99;100.00
27202;BME280;14717;46.924;15.474;2022-09-01T01:53:32;97975.78;;;17.06;100.00
27202;BME280;14717;46.924;15.474;2022-09-01T01:55:57;97960.34;;;17.00;100.00
27202;BME280;14717;46.924;15.474;2022-09-01T01:58:25;97968.56;;;16.97;100.00
27202;BME280;14717;46.924;15.474;2022-09-01T02:00:54;97962.66;;;16.98;100.00
27202;BME280;14717;46.924;15.474;2022-09-01T02:03:24;97965.28;;;17.03;100.00
27202;BME280;14717;46.924;15.474;2022-09-01T02:05:52;97968.56;;;17.05;100.00
27202;BME280;14717;46.924;15.474;2022-09-01T02:08:19;97969.56;;;17.09;100.00
27202;BME280;14717;46.924;15.474;2022-09-01T02:10:49;97969.03;;;17.07;100.00
27202;BME280;14717;46.924;15.474;2022-09-01T02:13:19;97970.22;;;17.06;100.00
27202;BME280;14717;46.924;15.474;2022-09-01T02:15:53;97971.34;;;17.13;100.00
27202;BME280;14717;46.924;15.474;2022-09-01T02:18:22;97980.06;;;17.20;100.00
27202;BME280;14717;46.924;15.474;2022-09-01T02:20:50;97972.84;;;17.19;100.00
27202;BME280;14717;46.924;15.474;2022-09-01T02:23:17;97971.84;;;17.07;100.00
27202;BME280;14717;46.924;15.474;2022-09-01T02:25:48;97969.06;;;17.15;100.00
27202;BME280;14717;46.924;15.474;2022-09-01T02:28:16;97973.13;;;17.18;100.00
27202;BME280;14717;46.924;15.474;2022-09-01T02:30:43;97965.28;;;17.20;100.00
27202;BME280;14717;46.924;15.474;2022-09-01T02:33:11;97969.72;;;17.21;100.00
27202;BME280;14717;46.924;15.474;2022-09-01T02:35:50;97969.06;;;17.24;100.00
27202;BME280;14717;46.924;15.474;2022-09-01T02:38:17;97968.22;;;17.15;100.00
27202;BME280;14717;46.924;15.474;2022-09-01T02:40:46;97968.22;;;17.15;100.00
27202;BME280;14717;46.924;15.474;2022-09-01T02:43:14;97971.19;;;17.10;100.00
27202;BME280;14717;46.924;15.474;2022-09-01T02:45:43;97973.13;;;17.18;100.00
27202;BME280;14717;46.924;15.474;2022-09-01T02:48:11;97972.31;;;17.17;100.00
27202;BME280;14717;46.924;15.474;2022-09-01T02:50:38;97968.38;;;17.10;100.00
27202;BME280;14717;46.924;15.474;2022-09-01T02:53:04;97964.63;;;17.06;100.00
27202;BME280;14717;46.924;15.474;2022-09-01T02:55:38;97962.50;;;17.03;100.00
27202;BME280;14717;46.924;15.474;2022-09-01T02:58:05;97962.66;;;17.06;100.00
27202;BME280;14717;46.924;15.474;2022-09-01T03:00:32;97970.72;;;16.91;100.00
27202;BME280;14717;46.924;15.474;2022-09-01T03:03:02;97960.22;;;16.88;100.00
27202;BME280;14717;46.924;15.474;2022-09-01T03:05:29;97961.53;;;16.82;100.00
27202;BME280;14717;46.924;15.474;2022-09-01T03:07:59;97955.47;;;16.72;100.00
27202;BME280;14717;46.924;15.474;2022-09-01T03:10:27;97963.03;;;16.71;100.00
27202;BME280;14717;46.924;15.474;2022-09-01T03:13:03;97964.66;;;16.72;100.00
27202;BME280;14717;46.924;15.474;2022-09-01T03:15:31;97956.28;;;16.72;100.00
27202;BME280;14717;46.924;15.474;2022-09-01T03:17:57;97956.13;;;16.77;100.00
27202;BME280;14717;46.924;15.474;2022-09-01T03:20:27;97954.66;;;16.71;100.00
27202;BME280;14717;46.924;15.474;2022-09-01T03:22:53;97951.22;;;16.74;100.00
27202;BME280;14717;46.924;15.474;2022-09-01T03:25:19;97956.28;;;16.72;100.00
27202;BME280;14717;46.924;15.474;2022-09-01T03:27:45;97956.81;;;16.74;100.00
27202;BME280;14717;46.924;15.474;2022-09-01T03:30:12;97946.28;;;16.80;100.00
27202;BME280;14717;46.924;15.474;2022-09-01T03:32:37;97955.78;;;16.79;100.00
27202;BME280;14717;46.924;15.474;2022-09-01T03:35:03;97955.97;;;16.74;100.00
27202;BME280;14717;46.924;15.474;2022-09-01T03:37:28;97955.97;;;16.57;100.00
27202;BME280;14717;46.924;15.474;2022-09-01T03:39:54;97945.63;;;16.49;100.00
27202;BME280;14717;46.924;15.474;2022-09-01T03:42:19;97939.75;;;16.51;100.00
27202;BME280;14717;46.924;15.474;2022-09-01T03:44:47;97945.97;;;16.48;100.00
27202;BME280;14717;46.924;15.474;2022-09-01T03:47:14;97941.72;;;16.50;100.00
27202;BME280;14717;46.924;15.474;2022-09-01T03:49:39;97940.91;;;16.58;100.00
27202;BME280;14717;46.924;15.474;2022-09-01T03:52:08;97938.25;;;16.62;100.00
27202;BME280;14717;46.924;15.474;2022-09-01T03:54:35;97936.63;;;16.61;100.00
27202;BME280;14717;46.924;15.474;2022-09-01T03:57:00;97930.53;;;16.59;100.00
27202;BME280;14717;46.924;15.474;2022-09-01T03:59:26;97932.69;;;16.62;100.00
27202;BME280;14717;46.924;15.474;2022-09-01T04:01:53;97933.66;;;16.65;100.00
27202;BME280;14717;46.924;15.474;2022-09-01T04:04:18;97939.56;;;16.64;100.00
27202;BME280;14717;46.924;15.474;2022-09-01T04:06:45;97937.94;;;16.63;100.00
27202;BME280;14717;46.924;15.474;2022-09-01T04:09:11;97934.63;;;16.61;100.00
27202;BME280;14717;46.924;15.474;2022-09-01T04:11:37;97936.44;;;16.57;100.00
27202;BME280;14717;46.924;15.474;2022-09-01T04:14:04;97926.78;;;16.55;100.00
27202;BME280;14717;46.924;15.474;2022-09-01T04:16:32;97932.84;;;16.57;100.00
27202;BME280;14717;46.924;15.474;2022-09-01T04:19:20;97939.09;;;16.54;100.00
27202;BME280;14717;46.924;15.474;2022-09-01T04:21:52;97947.94;;;16.56;100.00
27202;BME280;14717;46.924;15.474;2022-09-01T04:24:19;97933.66;;;16.57;100.00
27202;BME280;14717;46.924;15.474;2022-09-01T04:26:48;97935.81;;;16.52;100.00
27202;BME280;14717;46.924;15.474;2022-09-01T04:29:16;97935.31;;;16.58;100.00
27202;BME280;14717;46.924;15.474;2022-09-01T04:31:44;97937.94;;;16.63;100.00
27202;BME280;14717;46.924;15.474;2022-09-01T04:34:12;97927.25;;;16.65;100.00
27202;BME280;14717;46.924;15.474;2022-09-01T04:36:40;97925.78;;;16.51;100.00
27202;BME280;14717;46.924;15.474;2022-09-01T04:39:07;97918.91;;;16.48;100.00
27202;BME280;14717;46.924;15.474;2022-09-01T04:41:36;97924.97;;;16.59;100.00
27202;BME280;14717;46.924;15.474;2022-09-01T04:44:03;97918.09;;;16.64;100.00
27202;BME280;14717;46.924;15.474;2022-09-01T04:46:32;97919.69;;;16.65;100.00
27202;BME280;14717;46.924;15.474;2022-09-01T04:49:00;97914.47;;;16.56;100.00
27202;BME280;14717;46.924;15.474;2022-09-01T04:51:30;97921.03;;;16.43;100.00
27202;BME280;14717;46.924;15.474;2022-09-01T04:53:57;97925.97;;;16.29;100.00
27202;BME280;14717;46.924;15.474;2022-09-01T04:56:23;97919.41;;;16.42;100.00
27202;BME280;14717;46.924;15.474;2022-09-01T04:58:50;97924.47;;;16.57;100.00
27202;BME280;14717;46.924;15.474;2022-09-01T05:01:18;97928.41;;;16.47;100.00
27202;BME280;14717;46.924;15.474;2022-09-01T05:03:45;97928.59;;;16.42;100.00
27202;BME280;14717;46.924;15.474;2022-09-01T05:06:16;97925.31;;;16.49;100.00
27202;BME280;14717;46.924;15.474;2022-09-01T05:08:42;97923.81;;;16.51;100.00
27202;BME280;14717;46.924;15.474;2022-09-01T05:11:10;97924.47;;;16.57;100.00
27202;BME280;14717;46.924;15.474;2022-09-01T05:13:37;97913.00;;;16.58;100.00
27202;BME280;14717;46.924;15.474;2022-09-01T05:16:08;97921.53;;;16.62;100.00
27202;BME280;14717;46.924;15.474;2022-09-01T05:18:44;97928.72;;;16.62;100.00
27202;BME280;14717;46.924;15.474;2022-09-01T05:21:14;97918.75;;;16.62;100.00
27202;BME280;14717;46.924;15.474;2022-09-01T05:23:42;97923.66;;;16.64;100.00
27202;BME280;14717;46.924;15.474;2022-09-01T05:26:13;97929.72;;;16.75;100.00
27202;BME280;14717;46.924;15.474;2022-09-01T05:28:42;97922.31;;;16.79;100.00
27202;BME280;14717;46.924;15.474;2022-09-01T05:31:08;97917.72;;;16.83;100.00
27202;BME280;14717;46.924;15.474;2022-09-01T05:33:34;97914.41;;;16.81;99.84
27202;BME280;14717;46.924;15.474;2022-09-01T05:36:02;97906.72;;;16.78;100.00
27202;BME280;14717;46.924;15.474;2022-09-01T05:38:32;97911.63;;;16.81;100.00
27202;BME280;14717;46.924;15.474;2022-09-01T05:41:03;97911.28;;;16.91;100.00
27202;BME280;14717;46.924;15.474;2022-09-01T05:43:31;97912.13;;;16.91;100.00
27202;BME280;14717;46.924;15.474;2022-09-01T05:45:57;97902.41;;;16.97;99.97
27202;BME280;14717;46.924;15.474;2022-09-01T05:48:25;97896.16;;;17.00;99.21
27202;BME280;14717;46.924;15.474;2022-09-01T05:50:51;97905.84;;;17.03;99.50
27202;BME280;14717;46.924;15.474;2022-09-01T05:53:20;97897.31;;;16.99;99.71
27202;BME280;14717;46.924;15.474;2022-09-01T05:55:50;97903.69;;;17.08;99.21
27202;BME280;14717;46.924;15.474;2022-09-01T05:58:18;97907.94;;;17.14;98.57
27202;BME280;14717;46.924;15.474;2022-09-01T06:00:45;97907.94;;;17.14;99.01
27202;BME280;14717;46.924;15.474;2022-09-01T06:03:13;97911.06;;;17.21;98.57
27202;BME280;14717;46.924;15.474;2022-09-01T06:05:40;97912.03;;;17.25;98.71
27202;BME280;14717;46.924;15.474;2022-09-01T06:08:07;97904.13;;;17.27;98.34
27202;BME280;14717;46.924;15.474;2022-09-01T06:10:38;97899.44;;;17.19;98.34
27202;BME280;14717;46.924;15.474;2022-09-01T06:13:06;97904.47;;;17.17;98.18
27202;BME280;14717;46.924;15.474;2022-09-01T06:15:34;97915.34;;;17.18;98.88
27202;BME280;14717;46.924;15.474;2022-09-01T06:18:04;97910.25;;;17.20;98.44
27202;BME280;14717;46.924;15.474;2022-09-01T06:20:30;97912.69;;;17.22;97.69
27202;BME280;14717;46.924;15.474;2022-09-01T06:22:55;97910.22;;;17.29;98.39
27202;BME280;14717;46.924;15.474;2022-09-01T06:25:21;97906.13;;;17.26;98.19
27202;BME280;14717;46.924;15.474;2022-09-01T06:27:47;97909.72;;;17.27;98.66
27202;BME280;14717;46.924;15.474;2022-09-01T06:30:15;97926.09;;;17.37;99.04
27202;BME280;14717;46.924;15.474;2022-09-01T06:32:45;97916.53;;;17.46;97.28
27202;BME280;14717;46.924;15.474;2022-09-01T06:35:12;97912.13;;;17.45;98.64
27202;BME280;14717;46.924;15.474;2022-09-01T06:37:40;97918.63;;;17.57;98.42
27202;BME280;14717;46.924;15.474;2022-09-01T06:40:08;97918.59;;;17.66;96.77
27202;BME280;14717;46.924;15.474;2022-09-01T06:42:45;97915.47;;;17.67;94.09
27202;BME280;14717;46.924;15.474;2022-09-01T06:45:13;97918.53;;;17.74;96.09
27202;BME280;14717;46.924;15.474;2022-09-01T06:47:40;97925.44;;;17.77;95.61
27202;BME280;14717;46.924;15.474;2022-09-01T06:50:08;97922.13;;;17.83;97.69
27202;BME280;14717;46.924;15.474;2022-09-01T06:52:33;97927.31;;;17.93;94.12
27202;BME280;14717;46.924;15.474;2022-09-01T06:54:59;97931.06;;;17.97;90.95
27202;BME280;14717;46.924;15.474;2022-09-01T06:57:24;97936.25;;;18.15;92.32
27202;BME280;14717;46.924;15.474;2022-09-01T06:59:52;97934.34;;;17.99;91.66
27202;BME280;14717;46.924;15.474;2022-09-01T07:02:18;97941.06;;;18.06;91.91
27202;BME280;14717;46.924;15.474;2022-09-01T07:04:44;97935.50;;;17.98;92.39
27202;BME280;14717;46.924;15.474;2022-09-01T07:07:10;97944.78;;;18.10;90.51
27202;BME280;14717;46.924;15.474;2022-09-01T07:09:37;97948.25;;;18.07;89.06
27202;BME280;14717;46.924;15.474;2022-09-01T07:12:04;97950.91;;;18.12;91.16
27202;BME280;14717;46.924;15.474;2022-09-01T07:14:30;97957.13;;;18.18;91.20
27202;BME280;14717;46.924;15.474;2022-09-01T07:16:56;97957.53;;;18.28;92.99
27202;BME280;14717;46.924;15.474;2022-09-01T07:19:23;97962.41;;;18.39;89.50
27202;BME280;14717;46.924;15.474;2022-09-01T07:21:50;97955.09;;;18.27;93.36
27202;BME280;14717;46.924;15.474;2022-09-01T07:24:17;97967.72;;;18.33;92.23
27202;BME280;14717;46.924;15.474;2022-09-01T07:26:45;97969.31;;;18.13;87.75
27202;BME280;14717;46.924;15.474;2022-09-01T07:29:17;97969.16;;;18.10;93.04
27202;BME280;14717;46.924;15.474;2022-09-01T07:31:46;97972.75;;;18.19;88.29
27202;BME280;14717;46.924;15.474;2022-09-01T07:34:12;97969.69;;;18.32;87.07
27202;BME280;14717;46.924;15.474;2022-09-01T07:36:42;97967.53;;;18.58;92.07
27202;BME280;14717;46.924;15.474;2022-09-01T07:39:09;97968.13;;;18.43;87.83
27202;BME280;14717;46.924;15.474;2022-09-01T07:41:35;97962.00;;;18.49;88.70
27202;BME280;14717;46.924;15.474;2022-09-01T07:44:03;97965.31;;;18.63;89.69
27202;BME280;14717;46.924;15.474;2022-09-01T07:46:30;97965.81;;;18.25;91.02
27202;BME280;14717;46.924;15.474;2022-09-01T07:48:58;97954.47;;;18.41;89.99
27202;BME280;14717;46.924;15.474;2022-09-01T07:51:24;97965.81;;;18.65;90.27
27202;BME280;14717;46.924;15.474;2022-09-01T07:53:51;97965.13;;;18.68;88.11
27202;BME280;14717;46.924;15.474;2022-09-01T07:56:20;97969.78;;;18.64;89.87
27202;BME280;14717;46.924;15.474;2022-09-01T07:58:47;97969.31;;;19.03;85.51
27202;BME280;14717;46.924;15.474;2022-09-01T08:01:21;97964.94;;;19.25;87.77
27202;BME280;14717;46.924;15.474;2022-09-01T08:03:52;97963.19;;;19.21;85.07
27202;BME280;14717;46.924;15.474;2022-09-01T08:06:21;97964.94;;;19.25;84.85
27202;BME280;14717;46.924;15.474;2022-09-01T08:08:48;97975.16;;;19.54;83.15
27202;BME280;14717;46.924;15.474;2022-09-01T08:11:16;97966.84;;;19.45;78.34
27202;BME280;14717;46.924;15.474;2022-09-01T08:13:42;97975.53;;;19.20;80.67
27202;BME280;14717;46.924;15.474;2022-09-01T08:16:09;97976.53;;;19.36;78.79
27202;BME280;14717;46.924;15.474;2022-09-01T08:18:34;97976.13;;;19.25;82.69
27202;BME280;14717;46.924;15.474;2022-09-01T08:21:08;97975.38;;;19.05;84.32
27202;BME280;14717;46.924;15.474;2022-09-01T08:23:33;97974.50;;;19.24;86.42
27202;BME280;14717;46.924;15.474;2022-09-01T08:26:07;97976.88;;;19.34;83.23
27202;BME280;14717;46.924;15.474;2022-09-01T08:28:33;97973.97;;;19.43;80.87
27202;BME280;14717;46.924;15.474;2022-09-01T08:30:59;97974.81;;;19.55;80.87
27202;BME280;14717;46.924;15.474;2022-09-01T08:33:25;97972.63;;;19.61;80.08
27202;BME280;14717;46.924;15.474;2022-09-01T08:35:52;97971.22;;;19.66;78.35
27202;BME280;14717;46.924;15.474;2022-09-01T08:38:18;97966.69;;;19.74;78.30
27202;BME280;14717;46.924;15.474;2022-09-01T08:40:50;97976.47;;;19.80;76.14
27202;BME280;14717;46.924;15.474;2022-09-01T08:46:26;97984.66;;;19.73;79.17
27202;BME280;14717;46.924;15.474;2022-09-01T08:48:58;97969.47;;;19.74;77.83
27202;BME280;14717;46.924;15.474;2022-09-01T08:57:24;97975.59;;;19.88;74.31
27202;BME280;14717;46.924;15.474;2022-09-01T08:59:52;97967.59;;;19.78;80.73
27202;BME280;14717;46.924;15.474;2022-09-01T09:02:38;97966.25;;;20.07;77.57
27202;BME280;14717;46.924;15.474;2022-09-01T09:16:38;97963.72;;;20.77;74.65
27202;BME280;14717;46.924;15.474;2022-09-01T09:19:33;97961.31;;;20.40;78.03
27202;BME280;14717;46.924;15.474;2022-09-01T09:22:01;97959.75;;;20.54;73.00
27202;BME280;14717;46.924;15.474;2022-09-01T09:24:51;97966.88;;;20.52;71.18
27202;BME280;14717;46.924;15.474;2022-09-01T09:27:29;97955.94;;;20.86;69.80
27202;BME280;14717;46.924;15.474;2022-09-01T09:30:03;97967.28;;;20.90;72.48
27202;BME280;14717;46.924;15.474;2022-09-01T09:41:01;97965.41;;;20.93;70.46
27202;BME280;14717;46.924;15.474;2022-09-01T09:43:29;97955.81;;;21.22;68.81
27202;BME280;14717;46.924;15.474;2022-09-01T09:48:47;97956.41;;;21.15;68.73
27202;BME280;14717;46.924;15.474;2022-09-01T09:51:19;97952.47;;;20.77;69.29
27202;BME280;14717;46.924;15.474;2022-09-01T09:53:45;97943.19;;;21.16;68.55
27202;BME280;14717;46.924;15.474;2022-09-01T09:58:41;97939.50;;;21.54;68.68
27202;BME280;14717;46.924;15.474;2022-09-01T10:03:49;97938.16;;;21.36;68.52
27202;BME280;14717;46.924;15.474;2022-09-01T10:06:33;97927.25;;;21.78;65.59
27202;BME280;14717;46.924;15.474;2022-09-01T10:09:32;97923.59;;;21.77;64.38
27202;BME280;14717;46.924;15.474;2022-09-01T10:12:00;97928.78;;;21.75;62.65
27202;BME280;14717;46.924;15.474;2022-09-01T10:14:40;97925.50;;;21.88;60.75
27202;BME280;14717;46.924;15.474;2022-09-01T10:17:13;97925.06;;;21.86;63.25
27202;BME280;14717;46.924;15.474;2022-09-01T10:19:50;97935.28;;;21.48;64.01
27202;BME280;14717;46.924;15.474;2022-09-01T10:22:18;97935.88;;;21.42;64.85
27202;BME280;14717;46.924;15.474;2022-09-01T10:24:44;97924.06;;;21.79;61.49
27202;BME280;14717;46.924;15.474;2022-09-01T10:27:17;97932.56;;;22.13;61.93
27202;BME280;14717;46.924;15.474;2022-09-01T10:29:47;97927.91;;;22.36;61.34
27202;BME280;14717;46.924;15.474;2022-09-01T10:32:19;97929.00;;;22.16;61.96
27202;BME280;14717;46.924;15.474;2022-09-01T10:34:46;97936.13;;;21.95;63.54
27202;BME280;14717;46.924;15.474;2022-09-01T10:37:13;97932.38;;;22.06;65.49
27202;BME280;14717;46.924;15.474;2022-09-01T10:42:48;97934.47;;;22.09;66.68
27202;BME280;14717;46.924;15.474;2022-09-01T10:45:30;97932.47;;;22.10;61.97
27202;BME280;14717;46.924;15.474;2022-09-01T10:48:29;97932.03;;;22.23;64.69
27202;BME280;14717;46.924;15.474;2022-09-01T10:53:50;97933.03;;;22.15;62.69
27202;BME280;14717;46.924;15.474;2022-09-01T11:14:52;97945.72;;;21.21;65.09
27202;BME280;14717;46.924;15.474;2022-09-01T11:22:35;97940.94;;;21.79;63.53
27202;BME280;14717;46.924;15.474;2022-09-01T11:30:36;97933.03;;;21.54;65.14
27202;BME280;14717;46.924;15.474;2022-09-01T11:33:52;97939.19;;;21.44;62.04
27202;BME280;14717;46.924;15.474;2022-09-01T11:36:06;97942.84;;;21.60;63.02
27202;BME280;14717;46.924;15.474;2022-09-01T11:41:28;97936.97;;;21.95;60.07
27202;BME280;14717;46.924;15.474;2022-09-01T11:44:11;97926.69;;;21.87;58.55
27202;BME280;14717;46.924;15.474;2022-09-01T11:46:37;97933.03;;;22.15;58.65
27202;BME280;14717;46.924;15.474;2022-09-01T11:49:35;97923.31;;;22.13;60.93
27202;BME280;14717;46.924;15.474;2022-09-01T11:52:02;97929.41;;;21.99;61.69
27202;BME280;14717;46.924;15.474;2022-09-01T11:54:37;97927.03;;;22.01;59.84
27202;BME280;14717;46.924;15.474;2022-09-01T11:57:17;97925.03;;;22.17;60.61
27202;BME280;14717;46.924;15.474;2022-09-01T11:59:43;97927.47;;;22.03;60.88
27202;BME280;14717;46.924;15.474;2022-09-01T12:02:16;97930.66;;;22.02;58.95
27202;BME280;14717;46.924;15.474;2022-09-01T12:04:44;97914.34;;;21.77;62.27
27202;BME280;14717;46.924;15.474;2022-09-01T12:07:13;97927.94;;;21.90;57.29
27202;BME280;14717;46.924;15.474;2022-09-01T12:09:48;97923.50;;;22.04;58.04
27202;BME280;14717;46.924;15.474;2022-09-01T12:14:59;97933.94;;;21.88;63.50
27202;BME280;14717;46.924;15.474;2022-09-01T12:17:25;97924.50;;;21.96;59.47
27202;BME280;14717;46.924;15.474;2022-09-01T12:19:51;97921.78;;;22.15;58.19
27202;BME280;14717;46.924;15.474;2022-09-01T12:22:18;97923.69;;;22.26;57.57
27202;BME280;14717;46.924;15.474;2022-09-01T12:24:52;97922.13;;;22.29;59.04
27202;BME280;14717;46.924;15.474;2022-09-01T12:27:20;97929.56;;;22.06;57.31
27202;BME280;14717;46.924;15.474;2022-09-01T12:29:47;97926.31;;;22.20;55.43
27202;BME280;14717;46.924;15.474;2022-09-01T12:32:14;97918.13;;;22.30;54.51
27202;BME280;14717;46.924;15.474;2022-09-01T12:34:41;97923.22;;;22.09;56.64
27202;BME280;14717;46.924;15.474;2022-09-01T12:39:44;97909.78;;;22.18;59.49
27202;BME280;14717;46.924;15.474;2022-09-01T12:44:51;97910.44;;;22.46;56.89
27202;BME280;14717;46.924;15.474;2022-09-01T12:50:05;97912.47;;;22.45;59.47
27202;BME280;14717;46.924;15.474;2022-09-01T12:52:33;97903.00;;;22.38;59.62
27202;BME280;14717;46.924;15.474;2022-09-01T12:57:38;97912.09;;;22.47;54.16
27202;BME280;14717;46.924;15.474;2022-09-01T13:02:41;97903.69;;;22.31;52.99
27202;BME280;14717;46.924;15.474;2022-09-01T13:05:37;97917.50;;;22.21;58.13
27202;BME280;14717;46.924;15.474;2022-09-01T13:08:18;97925.66;;;22.41;53.52
27202;BME280;14717;46.924;15.474;2022-09-01T13:10:53;97916.72;;;22.39;55.42
27202;BME280;14717;46.924;15.474;2022-09-01T13:13:20;97921.78;;;22.15;53.38
27202;BME280;14717;46.924;15.474;2022-09-01T13:15:48;97921.66;;;22.12;56.18
27202;BME280;14717;46.924;15.474;2022-09-01T13:18:16;97920.84;;;22.11;51.98
27202;BME280;14717;46.924;15.474;2022-09-01T13:20:42;97915.41;;;22.18;55.03
27202;BME280;14717;46.924;15.474;2022-09-01T13:23:08;97917.94;;;22.23;51.05
27202;BME280;14717;46.924;15.474;2022-09-01T13:25:33;97920.13;;;22.14;54.19
27202;BME280;14717;46.924;15.474;2022-09-01T13:28:00;97924.69;;;21.88;55.18
27202;BME280;14717;46.924;15.474;2022-09-01T13:30:27;97921.63;;;21.78;53.64
27202;BME280;14717;46.924;15.474;2022-09-01T13:32:55;97924.84;;;21.95;50.76
27202;BME280;14717;46.924;15.474;2022-09-01T13:35:22;97925.44;;;22.00;49.58
27202;BME280;14717;46.924;15.474;2022-09-01T13:37:48;97923.94;;;22.06;50.06
27202;BME280;14717;46.924;15.474;2022-09-01T13:40:15;97919.22;;;22.10;49.29
27202;BME280;14717;46.924;15.474;2022-09-01T13:42:42;97922.97;;;21.99;49.91
27202;BME280;14717;46.924;15.474;2022-09-01T13:45:09;97928.84;;;22.09;51.06
27202;BME280;14717;46.924;15.474;2022-09-01T13:47:40;97924.88;;;22.10;47.56
27202;BME280;14717;46.924;15.474;2022-09-01T13:50:06;97935.47;;;22.17;48.20
27202;BME280;14717;46.924;15.474;2022-09-01T13:52:32;97927.41;;;22.15;48.04
27202;BME280;14717;46.924;15.474;2022-09-01T13:54:58;97925.84;;;22.18;48.25
27202;BME280;14717;46.924;15.474;2022-09-01T13:57:24;97924.78;;;21.91;54.10
27202;BME280;14717;46.924;15.474;2022-09-01T13:59:49;97929.22;;;21.92;49.12
27202;BME280;14717;46.924;15.474;2022-09-01T14:02:15;97924.22;;;22.01;48.55
27202;BME280;14717;46.924;15.474;2022-09-01T14:04:40;97923.94;;;22.06;48.26
27202;BME280;14717;46.924;15.474;2022-09-01T14:07:06;97927.19;;;22.08;49.40
27202;BME280;14717;46.924;15.474;2022-09-01T14:09:31;97937.00;;;22.14;48.65
27202;BME280;14717;46.924;15.474;2022-09-01T14:11:57;97937.75;;;22.11;49.63
27202;BME280;14717;46.924;15.474;2022-09-01T14:14:23;97937.94;;;22.18;51.27
27202;BME280;14717;46.924;15.474;2022-09-01T14:16:49;97940.41;;;21.89;58.21
27202;BME280;14717;46.924;15.474;2022-09-01T14:19:15;97936.41;;;21.90;55.61
27202;BME280;14717;46.924;15.474;2022-09-01T14:21:41;97931.22;;;21.92;59.12
27202;BME280;14717;46.924;15.474;2022-09-01T14:24:06;97938.84;;;21.91;61.07
27202;BME280;14717;46.924;15.474;2022-09-01T14:26:32;97937.13;;;22.02;62.09